TimeEDT,TemperatureF,Dew PointF,Humidity,Sea Level PressureIn,VisibilityMPH,Wind Direction,Wind SpeedMPH,Gust SpeedMPH,PrecipitationIn,Events,Conditions,WindDirDegrees,DateUTC
12:53 AM,48.0,28.9,48,30.19,10.0,South,9.2,-,N/A,,Clear,170,2013-03-11 04:53:00
1:53 AM,46.0,28.0,50,30.19,10.0,SSW,8.1,-,N/A,,Clear,210,2013-03-11 05:53:00
2:53 AM,45.0,28.0,52,30.18,10.0,South,9.2,-,N/A,,Clear,180,2013-03-11 06:53:00
3:53 AM,44.1,30.0,58,30.16,10.0,Calm,Calm,-,N/A,,Clear,0,2013-03-11 07:53:00
4:53 AM,42.1,32.0,67,30.15,10.0,SSW,4.6,-,N/A,,Clear,210,2013-03-11 08:53:00
5:53 AM,42.1,34.0,73,30.14,10.0,South,5.8,-,N/A,,Clear,190,2013-03-11 09:53:00
6:53 AM,39.9,34.0,79,30.15,10.0,Calm,Calm,-,N/A,,Partly Cloudy,0,2013-03-11 10:53:00
7:07 AM,39.2,33.8,81,30.14,10.0,Calm,Calm,-,N/A,,Mostly Cloudy,0,2013-03-11 11:07:00
7:53 AM,41.0,35.1,79,30.15,8.0,Calm,Calm,-,N/A,,Mostly Cloudy,0,2013-03-11 11:53:00
8:53 AM,43.0,37.0,80,30.16,8.0,SSE,6.9,-,N/A,,Mostly Cloudy,160,2013-03-11 12:53:00
9:53 AM,45.0,37.9,76,30.16,8.0,SSW,8.1,-,N/A,,Scattered Clouds,200,2013-03-11 13:53:00
10:53 AM,46.0,37.9,73,30.14,9.0,South,9.2,-,N/A,,Clear,170,2013-03-11 14:53:00
11:53 AM,48.0,37.9,68,30.13,10.0,Variable,6.9,-,N/A,,Clear,0,2013-03-11 15:53:00
12:53 PM,50.0,37.9,63,30.12,10.0,Variable,3.5,-,N/A,,Clear,0,2013-03-11 16:53:00
1:53 PM,53.1,36.0,52,30.07,10.0,South,9.2,-,N/A,,Clear,170,2013-03-11 17:53:00
2:53 PM,54.0,34.0,47,30.03,10.0,South,9.2,-,N/A,,Partly Cloudy,170,2013-03-11 18:53:00
3:53 PM,55.0,35.1,47,30.01,10.0,South,12.7,17.3,N/A,,Clear,170,2013-03-11 19:53:00
4:53 PM,55.9,37.9,51,29.98,10.0,SSE,12.7,-,N/A,,Clear,160,2013-03-11 20:53:00
5:53 PM,55.0,39.9,57,29.97,10.0,SSE,8.1,20.7,N/A,,Clear,160,2013-03-11 21:53:00
7:53 PM,55.0,45.0,69,29.96,10.0,South,9.2,18.4,N/A,,Overcast,170,2013-03-11 23:53:00
8:07 PM,55.4,44.6,67,29.96,10.0,Variable,5.8,-,0.00,Rain,Light Rain,0,2013-03-12 00:07:00
8:53 PM,54.0,46.0,75,29.98,10.0,South,10.4,-,0.00,Rain,Light Rain,180,2013-03-12 00:53:00
9:53 PM,55.0,46.0,72,29.93,10.0,SSE,16.1,25.3,0.00,,Mostly Cloudy,160,2013-03-12 01:53:00
10:53 PM,55.0,46.0,72,29.93,10.0,South,17.3,23.0,0.00,,Overcast,170,2013-03-12 02:53:00
11:00 PM,55.4,46.4,72,29.92,10.0,South,13.8,24.2,N/A,,Overcast,170,2013-03-12 03:00:00
11:53 PM,55.0,46.9,74,29.88,10.0,South,13.8,23.0,0.00,,Overcast,180,2013-03-12 03:53:00